createdAt,value
2018-12-29T00:00:26.377Z,29.47
2018-12-29T00:02:53.319Z,37.07
2018-12-29T00:05:20.268Z,34.50
2018-12-29T00:07:47.239Z,26.70
2018-12-29T00:10:14.204Z,25.10
2018-12-29T00:12:41.173Z,28.67
2018-12-29T00:15:08.136Z,28.30
2018-12-29T00:17:35.104Z,30.17
2018-12-29T00:20:02.062Z,31.57
2018-12-29T00:22:29.068Z,27.83
2018-12-29T00:24:56.081Z,27.90
2018-12-29T00:27:23.106Z,25.77
2018-12-29T00:29:50.258Z,30.60
2018-12-29T00:32:17.265Z,25.60
2018-12-29T00:34:44.271Z,28.33
2018-12-29T00:37:11.201Z,27.37
2018-12-29T00:39:38.127Z,31.30
2018-12-29T00:42:05.061Z,29.17
2018-12-29T00:44:31.988Z,29.77
2018-12-29T00:46:58.953Z,29.67
2018-12-29T00:49:25.909Z,27.60
2018-12-29T00:51:52.830Z,26.73
2018-12-29T00:54:20.261Z,43.47
2018-12-29T00:56:47.171Z,45.90
2018-12-29T00:59:14.118Z,30.17
2018-12-29T01:01:41.110Z,30.67
2018-12-29T01:04:08.100Z,50.60
2018-12-29T01:06:35.062Z,30.33
2018-12-29T01:09:02.790Z,33.03
2018-12-29T01:11:29.016Z,29.07
2018-12-29T01:13:55.991Z,28.07
2018-12-29T01:16:22.881Z,32.23
2018-12-29T01:18:50.605Z,27.10
2018-12-29T01:21:17.513Z,27.77
2018-12-29T01:23:44.457Z,29.30
2018-12-29T01:26:11.410Z,28.57
2018-12-29T01:28:38.338Z,32.53
2018-12-29T01:31:05.332Z,36.87
2018-12-29T01:33:32.244Z,30.33
2018-12-29T01:35:59.177Z,30.07
2018-12-29T01:38:26.152Z,30.30
2018-12-29T01:40:53.085Z,37.27
2018-12-29T01:43:20.033Z,34.17
2018-12-29T01:45:47.010Z,31.87
2018-12-29T01:48:14.651Z,30.30
2018-12-29T01:50:41.615Z,30.30
2018-12-29T01:53:08.549Z,35.20
2018-12-29T01:55:35.485Z,34.57
2018-12-29T01:58:02.402Z,34.83
2018-12-29T02:00:29.349Z,33.67
2018-12-29T02:02:56.337Z,34.17
2018-12-29T02:05:23.380Z,38.27
2018-12-29T02:07:50.398Z,36.20
2018-12-29T02:10:17.374Z,36.57
2018-12-29T02:12:44.318Z,37.90
2018-12-29T02:15:11.282Z,34.17
2018-12-29T02:17:38.279Z,35.67
2018-12-29T02:20:05.372Z,40.73
2018-12-29T02:22:32.332Z,34.37
2018-12-29T02:24:59.350Z,35.17
2018-12-29T02:27:26.810Z,37.73
2018-12-29T02:29:53.770Z,35.07
2018-12-29T02:32:20.746Z,38.47
2018-12-29T02:34:47.687Z,37.27
2018-12-29T02:37:14.698Z,38.50
2018-12-29T02:39:41.770Z,35.40
2018-12-29T02:42:08.739Z,37.60
2018-12-29T02:44:35.711Z,36.20
2018-12-29T02:47:02.685Z,38.87
2018-12-29T02:49:29.627Z,41.03
2018-12-29T02:51:57.014Z,38.57
2018-12-29T02:54:23.999Z,37.70
2018-12-29T02:56:51.800Z,36.00
2018-12-29T02:59:18.807Z,39.80
2018-12-29T03:01:45.793Z,38.37
2018-12-29T03:04:12.754Z,40.50
2018-12-29T03:06:40.440Z,55.13
2018-12-29T03:09:07.451Z,50.20
2018-12-29T03:11:34.906Z,52.43
2018-12-29T03:14:01.885Z,41.57
2018-12-29T03:16:28.939Z,35.00
2018-12-29T03:18:55.930Z,43.37
2018-12-29T03:21:22.889Z,38.77
2018-12-29T03:23:50.005Z,42.57
2018-12-29T03:26:16.967Z,33.37
2018-12-29T03:28:43.922Z,39.67
2018-12-29T03:31:11.804Z,38.53
2018-12-29T03:33:38.889Z,33.40
2018-12-29T03:36:06.071Z,48.10
2018-12-29T03:38:33.031Z,33.23
2018-12-29T03:41:00.062Z,39.73
2018-12-29T03:43:27.035Z,36.27
2018-12-29T03:45:54.022Z,34.10
2018-12-29T03:48:20.985Z,31.10
2018-12-29T03:50:47.944Z,35.70
2018-12-29T03:53:14.921Z,32.23
2018-12-29T03:55:41.872Z,37.50
2018-12-29T03:58:08.855Z,39.07
2018-12-29T04:00:35.789Z,35.47
2018-12-29T04:03:02.728Z,37.73
2018-12-29T04:05:29.752Z,34.17
2018-12-29T04:07:56.721Z,35.10
2018-12-29T04:10:23.661Z,38.73
2018-12-29T04:12:53.809Z,33.67
2018-12-29T04:15:20.817Z,36.00
2018-12-29T04:17:47.783Z,35.93
2018-12-29T04:20:14.697Z,33.13
2018-12-29T04:22:42.153Z,30.27
2018-12-29T04:25:09.065Z,35.90
2018-12-29T04:27:36.010Z,47.40
2018-12-29T04:30:03.110Z,33.63
2018-12-29T04:32:30.032Z,32.93
2018-12-29T04:34:56.952Z,35.70
2018-12-29T04:37:23.872Z,38.37
2018-12-29T04:39:51.518Z,33.83
2018-12-29T04:42:18.479Z,33.97
2018-12-29T04:44:45.451Z,44.97
2018-12-29T04:47:12.395Z,35.20
2018-12-29T04:49:39.374Z,36.93
2018-12-29T04:52:07.871Z,47.50
2018-12-29T04:54:33.331Z,40.33
2018-12-29T04:57:00.307Z,42.00
2018-12-29T04:59:27.260Z,38.27
2018-12-29T05:01:54.207Z,38.27
2018-12-29T05:04:21.177Z,35.10
2018-12-29T05:06:48.130Z,36.83
2018-12-29T05:09:15.589Z,37.40
2018-12-29T05:11:42.519Z,40.27
2018-12-29T05:14:09.519Z,37.03
2018-12-29T05:16:36.463Z,44.37
2018-12-29T05:19:03.412Z,36.77
2018-12-29T05:21:30.430Z,37.70
2018-12-29T05:23:57.416Z,38.77
2018-12-29T05:26:24.403Z,37.47
2018-12-29T05:28:52.112Z,35.27
2018-12-29T05:31:19.090Z,35.20
2018-12-29T05:33:46.033Z,35.07
2018-12-29T05:36:12.978Z,40.07
2018-12-29T05:38:39.921Z,38.40
2018-12-29T05:41:06.869Z,38.20
2018-12-29T05:43:33.815Z,32.87
2018-12-29T05:46:00.777Z,48.60
2018-12-29T05:48:27.704Z,40.73
2018-12-29T05:50:54.675Z,35.87
2018-12-29T05:53:21.627Z,35.67
2018-12-29T05:55:48.588Z,43.50
2018-12-29T05:58:15.592Z,44.33
2018-12-29T06:00:42.638Z,35.27
2018-12-29T06:03:09.610Z,38.47
2018-12-29T06:05:36.541Z,38.13
2018-12-29T06:08:03.530Z,34.83
2018-12-29T06:10:30.498Z,36.27
2018-12-29T06:12:57.988Z,38.87
2018-12-29T06:15:24.974Z,36.40
2018-12-29T06:17:51.967Z,35.70
2018-12-29T06:20:18.898Z,35.63
2018-12-29T06:22:45.930Z,35.87
2018-12-29T06:25:12.891Z,36.50
2018-12-29T06:27:39.829Z,35.17
2018-12-29T06:30:07.467Z,36.27
2018-12-29T06:32:34.430Z,32.70
2018-12-29T06:35:01.387Z,35.50
2018-12-29T06:37:28.364Z,33.07
2018-12-29T06:39:55.333Z,32.77
2018-12-29T06:42:22.461Z,32.97
2018-12-29T06:44:49.539Z,36.57
2018-12-29T06:47:16.483Z,32.10
2018-12-29T06:49:43.422Z,36.80
2018-12-29T06:52:10.346Z,38.00
2018-12-29T06:54:37.312Z,34.03
2018-12-29T06:57:04.246Z,35.43
2018-12-29T06:59:31.216Z,34.80
2018-12-29T07:01:58.198Z,39.23
2018-12-29T07:09:19.568Z,32.27
2018-12-29T07:11:46.521Z,48.20
2018-12-29T07:14:13.533Z,49.37
2018-12-29T07:16:42.410Z,45.83
2018-12-29T07:19:08.383Z,48.30
2018-12-29T07:21:35.354Z,39.93
2018-12-29T07:24:02.265Z,51.27
2018-12-29T07:26:29.207Z,39.07
2018-12-29T07:28:56.153Z,52.20
2018-12-29T07:31:23.084Z,41.23
2018-12-29T07:33:50.213Z,42.77
2018-12-29T07:36:17.194Z,38.40
2018-12-29T07:38:44.142Z,38.07
2018-12-29T07:41:11.188Z,37.70
2018-12-29T07:43:38.138Z,45.37
2018-12-29T07:46:05.179Z,46.53
2018-12-29T07:48:32.992Z,47.30
2018-12-29T07:51:03.814Z,43.23
2018-12-29T07:53:39.453Z,46.77
2018-12-29T07:56:13.809Z,43.80
2018-12-29T07:58:40.772Z,42.70
2018-12-29T08:01:07.770Z,51.20
2018-12-29T08:03:34.768Z,43.60
2018-12-29T08:06:01.737Z,48.73
2018-12-29T08:08:28.796Z,47.53
2018-12-29T08:10:55.718Z,53.50
2018-12-29T08:13:23.998Z,57.27
2018-12-29T08:15:51.840Z,46.53
2018-12-29T08:18:18.782Z,46.53
2018-12-29T08:20:46.249Z,47.20
2018-12-29T08:23:13.278Z,40.87
2018-12-29T08:25:40.193Z,38.27
2018-12-29T08:28:07.090Z,36.73
2018-12-29T08:30:34.000Z,38.83
2018-12-29T08:33:00.907Z,36.03
2018-12-29T08:35:27.847Z,36.10
2018-12-29T08:37:54.741Z,42.50
2018-12-29T08:40:21.779Z,44.50
2018-12-29T08:42:48.805Z,36.77
2018-12-29T08:45:15.771Z,38.27
2018-12-29T08:47:42.715Z,46.07
2018-12-29T08:50:13.144Z,44.57
2018-12-29T08:52:36.738Z,39.13
2018-12-29T08:55:03.754Z,39.33
2018-12-29T08:57:30.776Z,43.43
2018-12-29T08:59:57.740Z,38.87
2018-12-29T09:02:25.406Z,45.07
2018-12-29T09:04:52.371Z,45.10
2018-12-29T09:07:19.382Z,56.63
2018-12-29T09:09:46.376Z,42.83
2018-12-29T09:12:13.337Z,53.13
2018-12-29T09:14:42.487Z,48.07
2018-12-29T09:17:12.182Z,44.07
2018-12-29T09:19:36.526Z,42.17
2018-12-29T09:22:03.587Z,42.37
2018-12-29T09:24:30.577Z,37.10
2018-12-29T09:26:57.508Z,45.90
2018-12-29T09:29:24.491Z,37.47
2018-12-29T09:31:51.558Z,37.67
2018-12-29T09:34:22.383Z,41.37
2018-12-29T09:36:45.955Z,34.87
2018-12-29T09:39:12.967Z,32.27
2018-12-29T09:41:40.801Z,36.13
2018-12-29T09:44:07.769Z,36.70
2018-12-29T09:46:35.401Z,34.03
2018-12-29T09:49:02.542Z,33.00
2018-12-29T09:51:29.582Z,30.47
2018-12-29T09:53:56.595Z,46.00
2018-12-29T09:56:23.601Z,33.77
2018-12-29T09:58:50.707Z,30.07
2018-12-29T10:01:18.345Z,38.83
2018-12-29T10:03:45.277Z,36.80
2018-12-29T10:06:12.254Z,34.30
2018-12-29T10:08:39.145Z,33.63
2018-12-29T10:11:06.163Z,33.67
2018-12-29T10:13:33.147Z,33.03
2018-12-29T10:16:00.181Z,35.33
2018-12-29T10:18:27.199Z,40.13
2018-12-29T10:20:54.144Z,39.07
2018-12-29T10:23:21.196Z,34.40
2018-12-29T10:25:48.146Z,42.27
2018-12-29T10:28:15.081Z,34.83
2018-12-29T10:30:42.060Z,36.73
2018-12-29T10:33:09.007Z,38.20
2018-12-29T10:35:36.010Z,39.27
2018-12-29T10:38:03.005Z,34.87
2018-12-29T10:40:30.051Z,33.13
2018-12-29T10:42:57.027Z,35.20
2018-12-29T10:45:23.969Z,35.70
2018-12-29T10:47:51.443Z,32.63
2018-12-29T10:50:18.451Z,43.07
2018-12-29T10:52:46.092Z,48.10
2018-12-29T10:55:13.049Z,50.57
2018-12-29T10:57:39.953Z,42.90
2018-12-29T11:00:08.263Z,43.40
2018-12-29T11:02:35.157Z,35.87
2018-12-29T11:05:02.096Z,37.47
2018-12-29T11:07:29.083Z,39.23
2018-12-29T11:09:56.082Z,34.20
2018-12-29T11:12:23.033Z,35.40
2018-12-29T11:14:50.000Z,36.70
2018-12-29T11:17:17.072Z,37.13
2018-12-29T11:19:44.047Z,38.10
2018-12-29T11:22:11.097Z,40.20
2018-12-29T11:24:38.035Z,34.57
2018-12-29T11:27:05.062Z,36.07
2018-12-29T11:29:32.198Z,36.20
2018-12-29T11:31:59.759Z,35.57
2018-12-29T11:34:26.810Z,39.40
2018-12-29T11:36:53.750Z,39.20
2018-12-29T11:39:20.682Z,35.73
2018-12-29T11:41:47.843Z,32.87
2018-12-29T11:44:14.811Z,35.83
2018-12-29T11:46:41.799Z,36.43
2018-12-29T11:49:08.875Z,30.67
2018-12-29T11:51:35.902Z,33.10
2018-12-29T11:54:02.922Z,31.63
2018-12-29T11:56:29.977Z,31.10
2018-12-29T11:58:57.019Z,35.17
2018-12-29T12:01:24.033Z,34.33
2018-12-29T12:03:51.046Z,36.63
2018-12-29T12:06:17.999Z,43.83
2018-12-29T12:08:45.014Z,32.67
2018-12-29T12:11:12.060Z,35.73
2018-12-29T12:13:39.044Z,36.30
2018-12-29T12:16:06.047Z,33.37
2018-12-29T12:18:33.014Z,36.00
2018-12-29T12:21:00.110Z,40.07
2018-12-29T12:23:27.132Z,44.73
2018-12-29T12:25:54.168Z,46.07
2018-12-29T12:28:21.797Z,38.30
2018-12-29T12:30:48.804Z,51.20
2018-12-29T12:33:16.335Z,32.50
2018-12-29T12:40:37.545Z,32.33
2018-12-29T12:43:04.599Z,35.60
2018-12-29T12:45:31.568Z,32.27
2018-12-29T12:48:04.994Z,35.67
2018-12-29T12:50:25.612Z,33.73
2018-12-29T12:52:52.652Z,40.73
2018-12-29T12:55:19.719Z,33.53
2018-12-29T12:57:46.674Z,34.50
2018-12-29T13:00:13.696Z,37.23
2018-12-29T13:02:40.636Z,38.17
2018-12-29T13:05:08.147Z,38.57
2018-12-29T13:07:35.144Z,37.07
2018-12-29T13:10:02.161Z,41.77
2018-12-29T13:12:29.098Z,31.43
2018-12-29T13:14:56.011Z,30.87
2018-12-29T13:17:23.006Z,33.57
2018-12-29T13:19:49.987Z,35.43
2018-12-29T13:22:16.950Z,34.77
2018-12-29T13:24:43.951Z,31.40
2018-12-29T13:27:11.040Z,32.17
2018-12-29T13:29:38.057Z,28.70
2018-12-29T13:32:05.932Z,33.87
2018-12-29T13:34:32.926Z,28.27
2018-12-29T13:37:00.581Z,34.43
2018-12-29T13:39:27.645Z,27.37
2018-12-29T13:41:54.639Z,38.30
2018-12-29T13:44:21.627Z,26.00
2018-12-29T13:46:48.723Z,37.20
2018-12-29T13:49:15.703Z,30.93
2018-12-29T13:51:42.777Z,31.53
2018-12-29T13:54:09.830Z,36.53
2018-12-29T13:56:36.950Z,35.43
2018-12-29T13:59:03.961Z,46.87
2018-12-29T14:01:31.021Z,43.90
2018-12-29T14:03:58.013Z,42.03
2018-12-29T14:06:24.950Z,33.47
2018-12-29T14:08:51.926Z,30.80
2018-12-29T14:11:18.851Z,36.63
2018-12-29T14:13:45.775Z,30.17
2018-12-29T14:16:12.719Z,26.93
2018-12-29T14:18:39.670Z,27.27
2018-12-29T14:21:06.698Z,31.33
2018-12-29T14:23:33.782Z,29.47
2018-12-29T14:26:01.010Z,35.10
2018-12-29T14:28:28.061Z,34.37
2018-12-29T14:30:55.027Z,30.50
2018-12-29T14:33:22.233Z,32.53
2018-12-29T14:35:49.181Z,29.57
2018-12-29T14:38:16.213Z,31.63
2018-12-29T14:40:43.269Z,30.57
2018-12-29T14:43:10.237Z,34.50
2018-12-29T14:45:37.225Z,31.83
2018-12-29T14:48:04.187Z,29.43
2018-12-29T14:50:31.397Z,33.40
2018-12-29T14:52:58.478Z,29.73
2018-12-29T14:55:25.468Z,27.87
2018-12-29T14:57:52.446Z,26.97
2018-12-29T15:00:19.486Z,33.60
2018-12-29T15:02:46.492Z,31.83
2018-12-29T15:05:13.495Z,33.67
2018-12-29T15:07:40.461Z,29.90
2018-12-29T15:10:07.461Z,30.97
2018-12-29T15:12:34.511Z,28.47
2018-12-29T15:15:01.530Z,29.77
2018-12-29T15:17:28.761Z,44.77
2018-12-29T15:19:55.811Z,30.73
2018-12-29T15:22:22.835Z,35.50
2018-12-29T15:24:49.911Z,28.20
2018-12-29T15:27:16.862Z,27.80
2018-12-29T15:29:43.923Z,26.80
2018-12-29T15:32:10.912Z,36.47
2018-12-29T15:34:38.036Z,29.43
2018-12-29T15:37:05.701Z,26.47
2018-12-29T15:39:32.769Z,29.30
2018-12-29T15:41:59.844Z,30.33
2018-12-29T15:44:26.843Z,30.20
2018-12-29T15:46:53.870Z,29.63
2018-12-29T15:49:20.892Z,36.00
2018-12-29T15:51:47.876Z,33.93
2018-12-29T15:54:14.860Z,30.90
2018-12-29T15:56:42.569Z,31.03
2018-12-29T15:59:09.598Z,32.17
2018-12-29T16:01:39.754Z,27.53
2018-12-29T16:04:05.419Z,30.70
2018-12-29T16:06:32.417Z,29.90
2018-12-29T16:08:59.611Z,32.17
2018-12-29T16:11:27.291Z,32.77
2018-12-29T16:13:53.665Z,34.03
2018-12-29T16:16:20.619Z,24.00
2018-12-29T16:18:47.555Z,28.77
2018-12-29T16:21:14.692Z,30.70
2018-12-29T16:23:41.669Z,30.37
2018-12-29T16:26:12.648Z,28.83
2018-12-29T16:28:35.795Z,29.13
2018-12-29T16:31:02.655Z,27.83
2018-12-29T16:33:29.682Z,27.13
2018-12-29T16:35:56.795Z,32.13
2018-12-29T16:38:23.867Z,29.30
2018-12-29T16:40:57.675Z,25.10
2018-12-29T16:43:17.946Z,23.73
2018-12-29T16:45:45.152Z,23.10
2018-12-29T16:48:12.211Z,24.73
2018-12-29T16:50:39.187Z,26.17
2018-12-29T16:53:06.174Z,20.43
2018-12-29T16:55:33.125Z,22.63
2018-12-29T16:58:00.781Z,24.40
2018-12-29T17:00:27.709Z,30.37
2018-12-29T17:02:54.642Z,32.57
2018-12-29T17:05:21.621Z,23.90
2018-12-29T17:07:49.102Z,21.20
2018-12-29T17:10:16.093Z,22.97
2018-12-29T17:12:43.066Z,28.90
2018-12-29T17:15:10.088Z,23.17
2018-12-29T17:17:37.224Z,17.93
2018-12-29T17:20:04.311Z,23.13
2018-12-29T17:22:31.307Z,20.70
2018-12-29T17:24:58.321Z,28.63
2018-12-29T17:27:25.318Z,24.77
2018-12-29T17:29:52.328Z,19.50
2018-12-29T17:32:19.445Z,22.57
2018-12-29T17:34:46.359Z,20.13
2018-12-29T17:37:13.317Z,24.70
2018-12-29T17:39:40.394Z,22.27
2018-12-29T17:42:07.584Z,19.90
2018-12-29T17:44:34.517Z,19.87
2018-12-29T17:47:01.467Z,18.50
2018-12-29T17:49:28.406Z,18.40
2018-12-29T17:51:55.638Z,18.30
2018-12-29T17:54:22.644Z,17.40
2018-12-29T17:56:49.648Z,23.07
2018-12-29T17:59:16.616Z,22.70
2018-12-29T18:01:43.610Z,20.23
2018-12-29T18:04:10.622Z,20.80
2018-12-29T18:06:37.585Z,17.97
2018-12-29T18:09:05.442Z,22.20
2018-12-29T18:11:32.418Z,14.87
2018-12-29T18:13:59.351Z,17.63
2018-12-29T18:16:26.357Z,15.87
2018-12-29T18:18:53.517Z,15.77
2018-12-29T18:21:20.389Z,17.90
2018-12-29T18:23:47.339Z,17.57
2018-12-29T18:26:14.407Z,23.97
2018-12-29T18:28:41.412Z,27.93
2018-12-29T18:31:08.419Z,33.10
2018-12-29T18:33:37.373Z,36.73
2018-12-29T18:36:02.395Z,22.30
2018-12-29T18:38:29.530Z,20.93
2018-12-29T18:40:56.589Z,20.17
2018-12-29T18:43:23.571Z,19.57
2018-12-29T18:45:50.538Z,15.23
2018-12-29T18:48:17.569Z,18.47
2018-12-29T18:50:44.488Z,19.60
2018-12-29T18:53:11.462Z,26.10
2018-12-29T18:55:38.455Z,25.43
2018-12-29T18:58:05.481Z,21.87
2018-12-29T19:00:32.578Z,18.50
2018-12-29T19:03:00.250Z,19.20
2018-12-29T19:05:27.226Z,17.83
2018-12-29T19:07:54.189Z,21.23
2018-12-29T19:10:21.187Z,16.20
2018-12-29T19:12:48.177Z,18.77
2018-12-29T19:15:15.102Z,18.50
2018-12-29T19:17:42.162Z,17.40
2018-12-29T19:20:09.170Z,20.93
2018-12-29T19:22:36.170Z,22.03
2018-12-29T19:25:03.117Z,16.33
2018-12-29T19:27:30.167Z,19.13
2018-12-29T19:29:57.160Z,16.73
2018-12-29T19:32:24.196Z,16.97
2018-12-29T19:34:51.274Z,21.17
2018-12-29T19:37:18.241Z,42.17
2018-12-29T19:39:45.233Z,18.50
2018-12-29T19:42:12.234Z,19.40
2018-12-29T19:44:39.306Z,24.83
2018-12-29T19:47:06.295Z,19.63
2018-12-29T19:49:33.313Z,20.23
2018-12-29T19:52:00.467Z,19.67
2018-12-29T19:54:27.507Z,18.50
2018-12-29T19:56:54.469Z,23.53
2018-12-29T19:59:21.494Z,21.33
2018-12-29T20:01:48.442Z,23.07
2018-12-29T20:04:15.456Z,21.60
2018-12-29T20:06:42.811Z,24.17
2018-12-29T20:09:09.845Z,24.27
2018-12-29T20:11:36.856Z,25.37
2018-12-29T20:14:03.827Z,21.60
2018-12-29T20:16:30.774Z,22.70
2018-12-29T20:18:57.763Z,25.40
2018-12-29T20:21:24.736Z,28.60
2018-12-29T20:23:51.932Z,26.43
2018-12-29T20:26:18.972Z,29.43
2018-12-29T20:28:45.970Z,27.87
2018-12-29T20:31:12.981Z,27.53
2018-12-29T20:33:39.928Z,27.10
2018-12-29T20:36:07.464Z,26.23
2018-12-29T20:38:34.493Z,23.57
2018-12-29T20:41:01.461Z,21.37
2018-12-29T20:43:28.459Z,22.67
2018-12-29T20:45:55.494Z,27.63
2018-12-29T20:48:22.449Z,25.40
2018-12-29T20:50:49.471Z,27.07
2018-12-29T20:53:16.561Z,29.03
2018-12-29T20:55:43.564Z,24.63
2018-12-29T20:58:10.530Z,27.67
2018-12-29T21:00:37.586Z,22.27
2018-12-29T21:03:04.523Z,23.73
2018-12-29T21:05:31.494Z,25.13
2018-12-29T21:07:58.532Z,26.07
2018-12-29T21:10:25.529Z,20.07
2018-12-29T21:12:52.633Z,26.97
2018-12-29T21:15:19.606Z,32.20
2018-12-29T21:17:46.593Z,22.20
2018-12-29T21:20:17.328Z,21.33
2018-12-29T21:22:40.558Z,21.00
2018-12-29T21:25:07.589Z,23.57
2018-12-29T21:27:34.621Z,24.13
2018-12-29T21:30:01.641Z,26.13
2018-12-29T21:32:28.623Z,21.07
2018-12-29T21:34:55.624Z,26.27
2018-12-29T21:37:22.568Z,23.87
2018-12-29T21:39:49.500Z,24.60
2018-12-29T21:42:16.526Z,24.33
2018-12-29T21:44:43.498Z,21.70
2018-12-29T21:47:10.501Z,22.10
2018-12-29T21:49:37.492Z,26.67
2018-12-29T21:52:04.480Z,24.77
2018-12-29T21:54:31.437Z,24.33
2018-12-29T21:56:58.378Z,22.83
2018-12-29T21:59:25.356Z,22.33
2018-12-29T22:01:52.489Z,20.80
2018-12-29T22:04:19.488Z,21.37
2018-12-29T22:06:46.520Z,21.90
2018-12-29T22:09:13.767Z,21.40
2018-12-29T22:11:40.769Z,20.97
2018-12-29T22:14:07.791Z,19.47
2018-12-29T22:16:34.811Z,22.23
2018-12-29T22:19:01.838Z,22.07
2018-12-29T22:21:28.834Z,21.10
2018-12-29T22:23:55.766Z,26.40
2018-12-29T22:26:22.797Z,23.70
2018-12-29T22:28:49.862Z,27.23
2018-12-29T22:31:17.450Z,28.13
2018-12-29T22:33:44.438Z,29.17
2018-12-29T22:36:11.513Z,24.53
2018-12-29T22:38:38.509Z,26.33
2018-12-29T22:41:05.917Z,41.03
2018-12-29T22:43:32.926Z,31.90
2018-12-29T22:45:59.925Z,26.27
2018-12-29T22:48:26.970Z,16.37
2018-12-29T22:50:53.944Z,77.33
2018-12-29T22:53:20.949Z,18.60
2018-12-29T22:55:47.926Z,19.27
2018-12-29T22:58:14.931Z,21.97
2018-12-29T23:00:43.086Z,18.50
2018-12-29T23:03:10.052Z,16.27
2018-12-29T23:05:37.051Z,18.00
2018-12-29T23:08:04.124Z,18.53
2018-12-29T23:10:31.106Z,19.70
2018-12-29T23:12:58.113Z,15.47
2018-12-29T23:15:25.078Z,16.90
2018-12-29T23:17:52.141Z,18.40
2018-12-29T23:20:19.154Z,19.17
2018-12-29T23:22:46.130Z,15.40
2018-12-29T23:25:13.125Z,15.17
2018-12-29T23:27:40.122Z,17.10
2018-12-29T23:30:07.112Z,16.67
2018-12-29T23:32:34.116Z,17.43
2018-12-29T23:35:01.029Z,17.20
2018-12-29T23:37:28.024Z,19.07
2018-12-29T23:39:55.067Z,17.50
2018-12-29T23:42:22.102Z,16.50
2018-12-29T23:44:49.814Z,16.87
2018-12-29T23:47:16.815Z,17.60
2018-12-29T23:49:43.916Z,15.13
2018-12-29T23:52:10.914Z,16.33
2018-12-29T23:54:37.896Z,15.90
2018-12-29T23:57:04.908Z,14.57
2018-12-29T23:59:31.954Z,14.33
